Forecasts are only available for sites displaying the forecast symbol.

Some water levels are actually in metres AHD (Australian Height Datum), click individual sites for more details.

Scroll for more >

River gauges, storages, and weirs in the Murray–Darling Basin

Type Locationsort descending River Water level Flow Volume Release Water temp Salinity Rainfall
River Gauge Albury (Union Bridge) Murray 1.04 m 18/05/2021 13:00 Not measured Not measured Not measured 13.7°C 18/05/2021 13:00 46.5 μS/cm 18/05/2021 13:00 Not measured Full data
River Gauge Balranald Murrumbidgee 3.77 m 18/05/2021 12:45 3766 ML/Day 18/05/2021 12:45 Not measured Not measured 13.9°C 18/05/2021 12:45 146.3 μS/cm 18/05/2021 12:45 Not measured Full data
River Gauge Bandiana Kiewa 1.2 m 18/05/2021 12:45 740 ML/Day 18/05/2021 12:45 Not measured Not measured 9.4°C 18/05/2021 12:45 39.9 μS/cm 18/05/2021 12:45 Not measured Full data
River Gauge Barmah Choke Murray 1.52 m 18/05/2021 12:45 3235 ML/Day 18/05/2021 12:45 Not measured Not measured Not measured Not measured Not measured Full data
River Gauge Biggara Murray 0.61 m 18/05/2021 12:45 888 ML/Day 18/05/2021 12:45 Not measured Not measured 8.6°C 18/05/2021 13:00 39.5 μS/cm 18/05/2021 13:00 0.2 mm 18/05/2021 9:00 Full data
River Gauge Bringenbrong Bridge Murray 1.99 m 18/05/2021 12:45 7291 ML/Day 18/05/2021 12:45 Not measured Not measured Not measured Not measured Not measured Full data
River Gauge Burtundy Darling 0.81 m 18/05/2021 12:15 327 ML/Day 18/05/2021 12:15 Not measured Not measured 13.1°C 18/05/2021 12:15 455.2 μS/cm 18/05/2021 12:15 Not measured Full data
River Gauge Colemans Mitta 0.96 m 18/05/2021 12:45 253 ML/Day 18/05/2021 12:45 Not measured Not measured 10.3°C 18/05/2021 12:45 50.8 μS/cm 18/05/2021 12:45 Not measured Full data
River Gauge Colemans Mitta 0.96 m 18/05/2021 12:45 253 ML/Day 18/05/2021 12:45 Not measured Not measured 10.3°C 18/05/2021 12:45 50.8 μS/cm 18/05/2021 12:45 Not measured Full data
River Gauge Colignan Murray 2.55 m 18/05/2021 12:45 11497 ML/Day 18/05/2021 12:45 Not measured Not measured 14.0°C 18/05/2021 12:45 87.7 μS/cm 18/05/2021 12:45 Not measured Full data
River Gauge Corowa Murray 0.99 m 18/05/2021 13:00 3264 ML/Day 18/05/2021 13:00 Not measured Not measured 12.7°C 18/05/2021 13:00 59.7 μS/cm 18/05/2021 13:00 Not measured Full data
Storage Dartmouth Dam Mitta 461.64 m 18/05/2021 12:45 Not measured 2455 GL 18/05/2021 12:45 Not measured Not measured Not measured Not measured Full data
Storage Dartmouth Dam Mitta 461.64 m 18/05/2021 12:45 Not measured 2455 GL 18/05/2021 12:45 Not measured Not measured Not measured Not measured Full data
River Gauge Doctors Point Murray 1.91 m 18/05/2021 13:00 3353 ML/Day 18/05/2021 13:00 Not measured Not measured 14.1°C 18/05/2021 13:00 52.4 μS/cm 18/05/2021 13:00 Not measured Full data
River Gauge Echuca Wharf Murray 86.39 m 18/05/2021 7:45 Not measured Not measured Not measured Not measured Not measured Not measured Full data
River Gauge Edward Escape Wakool 0.92 m 18/05/2021 12:45 1173 ML/Day 18/05/2021 12:45 Not measured Not measured 12.7°C 18/05/2021 12:45 54.4 μS/cm 18/05/2021 12:45 Not measured Full data
River Gauge Edward River Offtake Murray 1.7 m 18/05/2021 13:00 694 ML/Day 18/05/2021 13:00 Not measured Not measured 12.7°C 18/05/2021 12:45 58.4 μS/cm 18/05/2021 12:45 Not measured Full data
Weirs Euston Weir Downstream Murray 43.97 m 18/05/2021 12:45 12318 ML/Day 18/05/2021 12:45 Not measured Not measured 13.5°C 18/05/2021 12:45 126.7 μS/cm 18/05/2021 12:45 Not measured Full data
Weirs Euston Weir Upstream Murray 47.31 m 18/05/2021 8:45 Not measured 33 GL 18/05/2021 7:45 Not measured Not measured Not measured 145.9 mm 5/03/2020 9:00 Full data
River Gauge Flow to South Australia Murray Not measured Not measured Not measured 6831.3 ML/d18/05/2021 7:45 Not measured Not measured Not measured Full data
River Gauge Frenchman Creek Murray 26.98 m 18/05/2021 7:45 Not measured Not measured 7117.3 ML/d18/05/2021 7:45 Not measured Not measured Not measured Full data
River Gauge Gulpa Creek Offtake Murray 2.17 m 18/05/2021 12:45 191 ML/Day 18/05/2021 12:45 Not measured Not measured Not measured Not measured Not measured Full data
River Gauge Hinnomunjie Mitta 0.79 m 18/05/2021 12:45 695 ML/Day 18/05/2021 12:45 Not measured Not measured 6.3°C 18/05/2021 12:45 44.4 μS/cm 18/05/2021 12:45 0.00 mm 18/05/2021 9:00 Full data
Storage Hume Dam Murray 181.47 m 18/05/2021 13:00 Not measured 1307 GL 18/05/2021 13:00 2060.0 ML/d18/05/2021 8:00 Not measured Not measured 0.00 mm 18/05/2021 9:00 Full data
River Gauge Jingellic Murray 2.12 m 18/05/2021 12:45 8188 ML/Day 18/05/2021 12:45 Not measured Not measured 9.6°C 18/05/2021 12:45 25.6 μS/cm 18/05/2021 12:45 0.00 mm 17/05/2021 9:00 Full data
River Gauge Kerang Loddon 0.34 m 15/05/2021 8:45 168 ML/Day 15/05/2021 8:45 Not measured Not measured 11.9°C 15/05/2021 8:45 74.4 μS/cm 15/05/2021 8:45 Not measured Full data
River Gauge Lake Albert Murray 0.7 m 18/05/2021 5:45 Not measured 262 GL 18/05/2021 5:45 Not measured Not measured Not measured Not measured Full data
River Gauge Lake Alexandrina Murray 0.61 m 18/05/2021 5:45 Not measured 1522 GL 18/05/2021 5:45 Not measured Not measured 729.9 μS/cm 18/05/2021 11:45 Not measured Full data
Storage Lake Victoria Murray 22.96 m 18/05/2021 11:45 Not measured 243 GL 18/05/2021 11:45 Not measured 13.0°C 18/05/2021 11:45 152.2 μS/cm 18/05/2021 11:45 Not measured Full data
Weirs Lock 1 Downstream Murray 0.58 m 18/05/2021 11:45 Not measured Not measured 3871.7 ML/d18/05/2021 7:45 Not measured Not measured Not measured Full data
Weirs Lock 1 Upstream Murray 3.14 m 18/05/2021 11:45 Not measured Not measured Not measured 15.1°C 18/05/2021 11:45 247.6 μS/cm 18/05/2021 11:45 Not measured Full data
Weirs Lock 2 Downstream Murray 3.27 m 18/05/2021 11:45 Not measured Not measured Not measured Not measured Not measured Not measured Full data
Weirs Lock 2 Upstream Murray 6.15 m 18/05/2021 11:45 Not measured Not measured Not measured 14.8°C 18/05/2021 11:45 249.3 μS/cm 18/05/2021 11:45 Not measured Full data
Weirs Lock 3 Downstream Murray 6.36 m 18/05/2021 11:45 Not measured Not measured Not measured Not measured Not measured Not measured Full data
Weirs Lock 3 Upstream Murray 9.84 m 18/05/2021 11:45 Not measured Not measured Not measured Not measured Not measured Not measured Full data
Weirs Lock 4 Downstream Murray 10.43 m 18/05/2021 11:45 Not measured Not measured Not measured Not measured Not measured Not measured Full data
Weirs Lock 4 Upstream Murray 13.25 m 18/05/2021 11:45 Not measured Not measured Not measured Not measured Not measured Not measured Full data
Weirs Lock 5 Downstream Murray 13.39 m 18/05/2021 11:45 Not measured Not measured Not measured Not measured Not measured Not measured Full data
Weirs Lock 5 Upstream Murray 16.38 m 18/05/2021 11:45 Not measured Not measured Not measured 15.0°C 18/05/2021 11:45 210.4 μS/cm 18/05/2021 11:45 Not measured Full data
Weirs Lock 6 Downstream Murray 16.45 m 18/05/2021 11:45 Not measured Not measured Not measured Not measured Not measured Not measured Full data
Weirs Lock 6 Upstream Murray 19.29 m 18/05/2021 11:45 Not measured Not measured Not measured 14.8°C 18/05/2021 11:45 185.8 μS/cm 18/05/2021 11:45 Not measured Full data
Weirs Lock 7 Downstream Murray 20.37 m 18/05/2021 11:45 Not measured Not measured Not measured Not measured Not measured Not measured Full data
Weirs Lock 7 Upstream Murray 22.64 m 18/05/2021 11:45 Not measured Not measured Not measured 14.8°C 18/05/2021 11:45 125.2 μS/cm 18/05/2021 11:45 Not measured Full data
Weirs Lock 8 Upstream Murray 24.26 m 18/05/2021 10:45 Not measured Not measured Not measured 14.6°C 18/05/2021 10:45 125.9 μS/cm 18/05/2021 10:45 Not measured Full data
Weirs Lock 9 Downstream Murray 24.28 m 18/05/2021 11:45 Not measured Not measured Not measured Not measured Not measured Not measured Full data
Weirs Lock 9 Upstream Murray 27.37 m 18/05/2021 11:45 Not measured Not measured Not measured 14.4°C 18/05/2021 11:45 117.6 μS/cm 18/05/2021 11:45 Not measured Full data
River Gauge McCoy Bridge Goulburn 1.48 m 18/05/2021 12:45 958 ML/Day 18/05/2021 12:45 Not measured Not measured 12.3°C 18/05/2021 12:45 53.0 μS/cm 18/05/2021 12:45 Not measured Full data
Storage Menindee Lakes Darling Not measured Not measured 843 GL 18/05/2021 7:45 Not measured Not measured Not measured Not measured Full data
Weirs Mildura Weir downstream Murray 31.16 m 18/05/2021 12:45 Not measured Not measured Not measured 14.0°C 18/05/2021 12:45 91.0 μS/cm 18/05/2021 12:45 Not measured Full data
River Gauge Morgan Downstream Murray Not measured Not measured Not measured 3239.2 ML/d18/05/2021 11:45 Not measured 291.6 μS/cm 18/05/2021 9:45 Not measured Full data
River Gauge Mulwala Canal Murray Not measured Not measured Not measured 0.00 ML/d18/05/2021 8:45 Not measured Not measured Not measured Full data
River Gauge Mundoo Barrage Murray 0.6 m 18/05/2021 7:45 Not measured Not measured Not measured Not measured Not measured Not measured Full data
River Gauge Murray Bridge Murray 0.55 m 18/05/2021 11:45 Not measured Not measured Not measured 15.4°C 18/05/2021 11:45 309.5 μS/cm 18/05/2021 11:45 Not measured Full data
River Gauge Peechelba Ovens 126.54 m 18/05/2021 12:45 631 ML/Day 18/05/2021 12:45 Not measured Not measured 11.0°C 18/05/2021 12:45 56.5 μS/cm 18/05/2021 12:45 Not measured Full data
River Gauge Pinegrove Murray 1.18 m 18/05/2021 13:00 367 ML/Day 18/05/2021 13:00 Not measured Not measured 8.2°C 18/05/2021 13:00 48.3 μS/cm 18/05/2021 13:00 0.2 mm 17/05/2021 9:00 Full data
River Gauge Redcliffs Murray Not measured Not measured Not measured Not measured Not measured 86.4 μS/cm 18/05/2021 7:45 Not measured Full data
River Gauge Rochester Campaspe 1.71 m 18/05/2021 12:45 80 ML/Day 18/05/2021 12:45 Not measured Not measured 11.5°C 18/05/2021 12:45 612.5 μS/cm 18/05/2021 12:45 0.00 mm 17/05/2021 9:00 Full data
River Gauge Rufus River Murray 20.84 m 18/05/2021 7:45 Not measured Not measured 2879.9 ML/d18/05/2021 7:45 Not measured 146.0 μS/cm 18/05/2021 9:45 Not measured Full data
Weirs Steven's Weir Downstream Edward 1.63 m 18/05/2021 12:45 1453 ML/Day 18/05/2021 12:45 Not measured Not measured 13.2°C 18/05/2021 12:45 61.8 μS/cm 18/05/2021 12:45 Not measured Full data
Weirs Steven's Weir Upstream Edward 4.23 m 18/05/2021 13:00 Not measured Not measured Not measured Not measured Not measured Not measured Full data
River Gauge Stoney Crossing Murray 1.4 m 18/05/2021 12:45 431 ML/Day 18/05/2021 12:45 Not measured 427.4 ML/d18/05/2021 7:45 13.0°C 18/05/2021 12:45 161.8 μS/cm 18/05/2021 12:45 Not measured Full data
River Gauge Swan Hill Murray 1.09 m 18/05/2021 12:45 5160 ML/Day 18/05/2021 12:45 Not measured Not measured 13.6°C 18/05/2021 12:45 137.8 μS/cm 18/05/2021 12:45 Not measured Full data
River Gauge Tallandoon Mitta 1.44 m 18/05/2021 12:45 637 ML/Day 18/05/2021 12:45 Not measured Not measured 10.4°C 18/05/2021 12:45 53.5 μS/cm 18/05/2021 12:45 Not measured Full data
River Gauge Tallandoon Mitta 1.44 m 18/05/2021 12:45 637 ML/Day 18/05/2021 12:45 Not measured Not measured 10.4°C 18/05/2021 12:45 53.5 μS/cm 18/05/2021 12:45 Not measured Full data
River Gauge Tauwitchere Barrage Murray 0.63 m 18/05/2021 11:45 Not measured Not measured Not measured Not measured Not measured Not measured Full data
River Gauge Tocumwal Murray 1.22 m 18/05/2021 12:45 3933 ML/Day 18/05/2021 12:45 Not measured Not measured 12.5°C 18/05/2021 12:45 384.1 μS/cm 18/05/2021 12:45 Not measured Full data
River Gauge Torrumbarry Headworks Murray 83.81 m 18/05/2021 12:45 Not measured Not measured 213.2 ML/d18/05/2021 12:45 Not measured Not measured Not measured Full data
Weirs Torrumbarry Weir Downstream Murray 1.6 m 18/05/2021 12:45 4130 ML/Day 18/05/2021 12:45 Not measured Not measured 13.9°C 18/05/2021 12:45 65.1 μS/cm 18/05/2021 12:45 Not measured Full data
Weirs Torrumbarry Weir Upstream Murray 86.04 m 18/05/2021 9:15 Not measured 37 GL 18/05/2021 8:45 Not measured 13.7°C 18/05/2021 8:45 64.9 μS/cm 18/05/2021 7:45 0.00 mm 17/05/2021 9:00 Full data
River Gauge Wakool Canal Wakool 0.66 m 18/05/2021 12:45 Not measured Not measured 280.1 ML/d18/05/2021 8:45 Not measured Not measured Not measured Full data
River Gauge Wakool Junction Murray 2.79 m 18/05/2021 12:45 7199 ML/Day 18/05/2021 12:45 Not measured Not measured 13.0°C 18/05/2021 12:45 71.4 μS/cm 18/05/2021 12:45 Not measured Full data
River Gauge Weir 32 Upstream Darling 1.54 m 18/05/2021 12:45 536 ML/Day 18/05/2021 12:45 Not measured Not measured 13.1°C 18/05/2021 12:45 385.8 μS/cm 18/05/2021 12:45 Not measured Full data
Weirs Wentworth Weir Murray 27.89 m 18/05/2021 12:45 Not measured Not measured 10869.0 ML/d18/05/2021 8:45 Not measured 100.0 μS/cm 18/05/2021 7:45 Not measured Full data
River Gauge Wilcania Darling 9.41 m 18/05/2021 11:45 27715 ML/Day 18/05/2021 11:45 Not measured Not measured 15.9°C 18/05/2021 11:45 242.4 μS/cm 18/05/2021 11:45 Not measured Full data
River Gauge Yarrawonga Main Channel Murray 122.84 m 18/05/2021 12:45 Not measured Not measured 0.2 ML/d18/05/2021 12:45 Not measured Not measured Not measured Full data
Weirs Yarrawonga Weir Downstream Murray 0.73 m 18/05/2021 13:00 4025 ML/Day 18/05/2021 13:00 Not measured Not measured 13.7°C 18/05/2021 13:00 56.8 μS/cm 18/05/2021 13:00 Not measured Full data
Weirs Yarrawonga Weir Upstream Murray 124.72 m 18/05/2021 12:45 Not measured Not measured Not measured Not measured Not measured 0.00 mm 18/05/2021 9:00 Full data